North Myrtle Beach, South Carolina
Current Conditions -  °F | °C
As of 9:53 AM on Saturday 20 Dec 2014 (Local Time) from KCRE Reporting Station
Light Rain Light Rain  
Wind Chill: 43°   Ceiling: 6500
Heat Index: 47°   Visibility: 5mi
Dew Point: 43°   Wind: 8mph
Humidity: 86%   Direction: 50°NE
Pressure: 30.24"   Gusts: NA
Location:  33.83°N, 78.68°W
Report Text: KCRE 201453Z 05007KT 5SM -RA BR BKN065 OVC080 08/06 A3024 RMK AO1 SLP241 P0002 60002 T00830061 53019
Loading
Personal Weather Stations






























Interactive Weather Map New forecast layout! Learn more

10-Day Weather Forecast

Advertisements
Track Severe Weather on mobile